Orbital elements of COSMOS 2251 DEB
| Launched | 15 June 1993 |
| Flight ended | – |
| Launch site | Plesetsk Missile and Space Complex, Russia |
| Owner | Commonwealth of Independent States (former USSR) |
| NORAD ID | 33995 |
| Date fetched |
Epoch osculation |
Inc. [°] |
Ecc. | RA asc node [hr] |
Arg Peri. [°] |
Mean anom [°] |
Mean motion [rev/day] |
Abs. mag |
| Date fetched |
Epoch osculation |
Inc. [°] |
Ecc. | RA asc node [hr] |
Arg Peri. [°] |
Mean anom [°] |
Mean motion [rev/day] |
Abs. mag |
| 2026 May 03 17:57 | 2026 Apr 30 09:18:29 | 74.0616 | 0.00601 | 15.0358 | 205.9535 | 153.8603 | 14.35483 | – |
| 2026 May 02 17:57 | 2026 Apr 30 09:18:29 | 74.0616 | 0.00601 | 15.0358 | 205.9535 | 153.8603 | 14.35483 | – |
| 2026 May 01 17:56 | 2026 Apr 30 09:18:29 | 74.0616 | 0.00601 | 15.0358 | 205.9535 | 153.8603 | 14.35483 | – |
| 2026 Apr 30 17:56 | 2026 Apr 30 09:18:29 | 74.0616 | 0.00601 | 15.0358 | 205.9535 | 153.8603 | 14.35483 | – |
| 2026 Apr 29 17:57 | 2026 Apr 24 07:47:28 | 74.0606 | 0.00601 | 15.7761 | 218.2681 | 153.8603 | 14.35483 | – |
| 2026 Apr 28 17:56 | 2026 Apr 24 07:47:28 | 74.0606 | 0.00601 | 15.7761 | 218.2681 | 153.8603 | 14.35483 | – |
| 2026 Apr 27 17:58 | 2026 Apr 24 07:47:28 | 74.0606 | 0.00601 | 15.7761 | 218.2681 | 153.8603 | 14.35483 | – |
| 2026 Apr 26 17:58 | 2026 Apr 24 07:47:28 | 74.0606 | 0.00601 | 15.7761 | 218.2681 | 153.8603 | 14.35483 | – |
| 2026 Apr 25 17:58 | 2026 Apr 24 07:47:28 | 74.0606 | 0.00601 | 15.7761 | 218.2681 | 153.8603 | 14.35483 | – |
| 2026 Apr 24 17:59 | 2026 Apr 24 07:47:28 | 74.0606 | 0.00601 | 15.7761 | 218.2681 | 153.8603 | 14.35483 | – |
| 2026 Apr 23 17:57 | 2026 Apr 19 02:20:37 | 74.0598 | 0.00601 | 16.4144 | 228.9368 | 153.8603 | 14.35483 | – |
| 2026 Apr 22 17:57 | 2026 Apr 19 02:20:37 | 74.0598 | 0.00601 | 16.4144 | 228.9368 | 153.8603 | 14.35483 | – |
| 2026 Apr 21 17:57 | 2026 Apr 19 02:20:37 | 74.0598 | 0.00601 | 16.4144 | 228.9368 | 153.8603 | 14.35483 | – |
| 2026 Apr 20 17:57 | 2026 Apr 19 02:20:37 | 74.0598 | 0.00601 | 16.4144 | 228.9368 | 153.8603 | 14.35483 | – |
| 2026 Apr 19 17:58 | 2026 Apr 19 02:20:37 | 74.0598 | 0.00601 | 16.4144 | 228.9368 | 153.8603 | 14.35483 | – |
| 2026 Apr 18 17:56 | 2026 Apr 13 02:29:45 | 74.0594 | 0.00601 | 17.1462 | 241.1954 | 153.8603 | 14.35483 | – |
| 2026 Apr 16 17:57 | 2026 Apr 13 02:29:45 | 74.0594 | 0.00601 | 17.1462 | 241.1954 | 153.8603 | 14.35483 | – |
| 2026 Apr 14 17:57 | 2026 Apr 13 02:29:45 | 74.0594 | 0.00601 | 17.1462 | 241.1954 | 153.8603 | 14.35483 | – |
| 2026 Apr 13 17:57 | 2026 Apr 13 02:29:45 | 74.0594 | 0.00601 | 17.1462 | 241.1954 | 153.8603 | 14.35483 | – |
| 2026 Apr 12 17:57 | 2026 Apr 08 13:46:22 | 74.0601 | 0.00600 | 17.6994 | 250.4797 | 153.8603 | 14.35483 | – |
| 2026 Apr 11 17:57 | 2026 Apr 08 13:46:22 | 74.0601 | 0.00600 | 17.6994 | 250.4797 | 153.8603 | 14.35483 | – |
| 2026 Apr 10 17:58 | 2026 Apr 08 13:46:22 | 74.0601 | 0.00600 | 17.6994 | 250.4797 | 153.8603 | 14.35483 | – |
| 2026 Apr 09 18:01 | 2026 Apr 08 13:46:22 | 74.0601 | 0.00600 | 17.6994 | 250.4797 | 153.8603 | 14.35483 | – |
| 2026 Apr 08 17:57 | 2026 Apr 08 13:46:22 | 74.0601 | 0.00600 | 17.6994 | 250.4797 | 153.8603 | 14.35483 | – |
| 2026 Apr 07 17:57 | 2026 Apr 01 22:52:02 | 74.0589 | 0.00600 | 18.5078 | 264.1044 | 153.8603 | 14.35483 | – |
| 2026 Apr 06 17:57 | 2026 Apr 01 22:52:02 | 74.0589 | 0.00600 | 18.5078 | 264.1044 | 153.8603 | 14.35483 | – |